Tidioute, Pennsylvania
Current Conditions -  °F | °C
As of 9:15 AM on Monday 20 Oct 2014 (Local Time) from KFKL Reporting Station
Overcast Overcast  
Wind Chill: 40°   Ceiling: 9000
Heat Index: 45°   Visibility: 10mi
Dew Point: 36°   Wind: 9mph
Humidity: 71%   Direction: 200°SSW
Pressure: 29.98"   Gusts: NA
Location:  41.69°N, 79.4°W
Report Text: KFKL 201315Z 20008KT 10SM OVC090 07/02 A2998 RMK AO1
Loading
Personal Weather Stations






























Interactive Weather Map
Tropical Storm Tracking
New forecast layout! Learn more

10-Day Weather Forecast

Advertisements
Track Severe Weather on mobile